Time;durP1;ratioP1;P1;durP2;ratioP2;P2;SDS_P1;SDS_P2;PMS_P1;PMS_P2;Temp;Humidity;BMP_temperature;BMP_pressure;BME280_temperature;BME280_humidity;BME280_pressure;Samples;Min_cycle;Max_cycle;Signal;HPM_P1;HPM_P2
2022/07/01 00:00:34;;;;;;;;;;;;;;;;;;5049580;28;19924;-61
2022/07/01 00:03:01;;;;;;;;;;;;;;;;;;5054268;28;19971;-60
2022/07/01 00:05:29;;;;;;;;;;;;;;;;;;5054087;28;19951;-60
2022/07/01 00:07:55;;;;;;;;;;;;;;;;;;5054070;28;19928;-61
2022/07/01 00:10:22;;;;;;;;;;;;;;;;;;5053974;28;20397;-61
2022/07/01 00:12:48;;;;;;;;;;;;;;;;;;5054049;28;20274;-60
2022/07/01 00:15:15;;;;;;;;;;;;;;;;;;5054142;28;19925;-58
2022/07/01 00:17:43;;;;;;;;;;;;;;;;;;5054221;28;19991;-61
2022/07/01 00:20:10;;;;;;;;;;;;;;;;;;5054005;28;19986;-61
2022/07/01 00:22:39;;;;;;;;;;;;;;;;;;5052615;28;20451;-60
2022/07/01 00:25:06;;;;;;;;;;;;;;;;;;5053684;28;19932;-59
2022/07/01 00:27:33;;;;;;;;;;;;;;;;;;5053585;28;19925;-60
2022/07/01 00:29:59;;;;;;;;;;;;;;;;;;5053640;28;19929;-61
2022/07/01 00:32:26;;;;;;;;;;;;;;;;;;5053568;28;19925;-61
2022/07/01 00:34:53;;;;;;;;;;;;;;;;;;5053736;28;19924;-60
2022/07/01 00:37:19;;;;;;;;;;;;;;;;;;5053295;28;19931;-61
2022/07/01 00:39:47;;;;;;;;;;;;;;;;;;5053433;28;19924;-60
2022/07/01 00:42:14;;;;;;;;;;;;;;;;;;5053242;28;19932;-61
2022/07/01 00:44:41;;;;;;;;;;;;;;;;;;5053270;28;20436;-61
2022/07/01 00:47:10;;;;;;;;;;;;;;;;;;5053187;28;19925;-61
2022/07/01 00:49:36;;;;;;;;;;;;;;;;;;5053020;28;20354;-61
2022/07/01 00:52:03;;;;;;;;;;;;;;;;;;5052957;28;19971;-61
2022/07/01 00:54:31;;;;;;;;;;;;;;;;;;5053376;28;19928;-61
2022/07/01 00:56:59;;;;;;;;;;;;;;;;;;5053193;28;19925;-60
2022/07/01 00:59:26;;;;;;;;;;;;;;;;;;5046892;28;20022;-60
2022/07/01 01:01:52;;;;;;;;;;;;;;;;;;5033409;28;20382;-59
2022/07/01 01:04:19;;;;;;;;;;;;;;;;;;5033208;28;20374;-60
2022/07/01 01:06:45;;;;;;;;;;;;;;;;;;5032806;28;19925;-60
2022/07/01 01:12:18;;;;;;;;;;;;;;;;;;5048042;28;19940;-60
2022/07/01 01:14:44;;;;;;;;;;;;;;;;;;5052716;28;19928;-61
2022/07/01 01:17:12;;;;;;;;;;;;;;;;;;5052729;28;19924;-60
2022/07/01 01:19:38;;;;;;;;;;;;;;;;;;5052519;28;19972;-61
2022/07/01 01:22:06;;;;;;;;;;;;;;;;;;5052470;28;19933;-61
2022/07/01 01:24:33;;;;;;;;;;;;;;;;;;5052742;28;20266;-61
2022/07/01 01:26:59;;;;;;;;;;;;;;;;;;5052636;28;19925;-61
2022/07/01 01:29:26;;;;;;;;;;;;;;;;;;5052319;28;20440;-61
2022/07/01 01:31:53;;;;;;;;;;;;;;;;;;5052533;28;19928;-60
2022/07/01 01:34:19;;;;;;;;;;;;;;;;;;5052112;28;19931;-61
2022/07/01 01:36:46;;;;;;;;;;;;;;;;;;5052196;28;19994;-62
2022/07/01 01:39:13;;;;;;;;;;;;;;;;;;5059504;22;19925;-62
2022/07/01 01:41:40;;;;;;;;;;;;;;;;;;5032239;28;19964;-62
2022/07/01 01:44:06;;;;;;;;;;;;;;;;;;5032470;28;19929;-62
2022/07/01 01:46:34;;;;;;;;;;;;;;;;;;5032446;28;19929;-62
2022/07/01 01:49:01;;;;;;;;;;;;;;;;;;5032440;28;19968;-62
2022/07/01 01:51:27;;;;;;;;;;;;;;;;;;5032211;28;20364;-62
2022/07/01 01:53:54;;;;;;;;;;;;;;;;;;5032408;28;19964;-62
2022/07/01 01:56:22;;;;;;;;;;;;;;;;;;5032258;28;19972;-62
2022/07/01 01:58:49;;;;;;;;;;;;;;;;;;5031299;28;20433;-63
2022/07/01 02:01:16;;;;;;;;;;;;;;;;;;5012474;28;19933;-62
2022/07/01 02:03:43;;;;;;;;;;;;;;;;;;5012502;28;19979;-62
2022/07/01 02:06:10;;;;;;;;;;;;;;;;;;5012531;28;19926;-62
2022/07/01 02:08:37;;;;;;;;;;;;;;;;;;5012350;28;19925;-63
2022/07/01 02:11:03;;;;;;;;;;;;;;;;;;5012224;28;19933;-62
2022/07/01 02:13:31;;;;;;;;;;;;;;;;;;5012330;28;19972;-62
2022/07/01 02:15:58;;;;;;;;;;;;;;;;;;5012482;28;19972;-62
2022/07/01 02:18:24;;;;;;;;;;;;;;;;;;5012245;28;19926;-63
2022/07/01 02:20:51;;;;;;;;;;;;;;;;;;5012134;28;19995;-63
2022/07/01 02:23:17;;;;;;;;;;;;;;;;;;5012123;28;19977;-63
2022/07/01 02:25:44;;;;;;;;;;;;;;;;;;5012419;28;19926;-63
2022/07/01 02:28:10;;;;;;;;;;;;;;;;;;5012196;28;20040;-63
2022/07/01 02:30:39;;;;;;;;;;;;;;;;;;5012021;28;19980;-62
2022/07/01 02:33:06;;;;;;;;;;;;;;;;;;5012172;28;19980;-63
2022/07/01 02:35:33;;;;;;;;;;;;;;;;;;5012234;28;19979;-63
2022/07/01 02:38:00;;;;;;;;;;;;;;;;;;5012087;28;19972;-63
2022/07/01 02:40:26;;;;;;;;;;;;;;;;;;5011950;28;19957;-63
2022/07/01 02:42:53;;;;;;;;;;;;;;;;;;5012042;28;19976;-63
2022/07/01 02:45:19;;;;;;;;;;;;;;;;;;5013454;28;19926;-63
2022/07/01 02:47:47;;;;;;;;;;;;;;;;;;5015923;28;19972;-63
2022/07/01 02:50:14;;;;;;;;;;;;;;;;;;5015544;28;20016;-63
2022/07/01 02:52:42;;;;;;;;;;;;;;;;;;5015641;28;19925;-63
2022/07/01 02:55:10;;;;;;;;;;;;;;;;;;5015800;28;19972;-63
2022/07/01 02:57:36;;;;;;;;;;;;;;;;;;5015717;28;19988;-63
2022/07/01 03:00:05;;;;;;;;;;;;;;;;;;5015503;28;19972;-63
2022/07/01 03:02:32;;;;;;;;;;;;;;;;;;5015643;28;19925;-63
2022/07/01 03:05:00;;;;;;;;;;;;;;;;;;5015494;28;19925;-63
2022/07/01 03:07:27;;;;;;;;;;;;;;;;;;5015549;28;19925;-63
2022/07/01 03:09:53;;;;;;;;;;;;;;;;;;5015234;28;19956;-63
2022/07/01 03:12:27;;;;;;;;;;;;;;;;;;5015315;28;19925;-63
2022/07/01 03:14:54;;;;;;;;;;;;;;;;;;5015489;28;19936;-63
2022/07/01 03:17:21;;;;;;;;;;;;;;;;;;5015309;28;19929;-63
2022/07/01 03:19:48;;;;;;;;;;;;;;;;;;5015418;28;19937;-63
2022/07/01 03:22:15;;;;;;;;;;;;;;;;;;5015229;28;20020;-63
2022/07/01 03:24:42;;;;;;;;;;;;;;;;;;5015330;28;19965;-62
2022/07/01 03:27:09;;;;;;;;;;;;;;;;;;5015377;28;19930;-62
2022/07/01 03:29:35;;;;;;;;;;;;;;;;;;5014863;28;19988;-62
2022/07/01 03:32:02;;;;;;;;;;;;;;;;;;5015015;28;19975;-62
2022/07/01 03:34:28;;;;;;;;;;;;;;;;;;5015096;28;19926;-62
2022/07/01 03:36:55;;;;;;;;;;;;;;;;;;5015083;28;19929;-62
2022/07/01 03:39:23;;;;;;;;;;;;;;;;;;5014592;28;19925;-62
2022/07/01 03:41:49;;;;;;;;;;;;;;;;;;5014848;28;20441;-62
2022/07/01 03:44:16;;;;;;;;;;;;;;;;;;5014778;28;19925;-62
2022/07/01 03:46:42;;;;;;;;;;;;;;;;;;5015340;28;19929;-62
2022/07/01 03:49:09;;;;;;;;;;;;;;;;;;5014685;28;20363;-62
2022/07/01 03:51:35;;;;;;;;;;;;;;;;;;5014704;28;20400;-62
2022/07/01 03:56:47;;;;;;;;;;;;;;;;;;5014608;28;19932;-62
2022/07/01 03:59:13;;;;;;;;;;;;;;;;;;5014359;28;19968;-62
2022/07/01 04:01:40;;;;;;;;;;;;;;;;;;5014333;28;19929;-62
2022/07/01 04:04:06;;;;;;;;;;;;;;;;;;5014484;28;19925;-62
2022/07/01 04:06:33;;;;;;;;;;;;;;;;;;5014508;28;19925;-63
2022/07/01 04:08:59;;;;;;;;;;;;;;;;;;5014360;28;19979;-62
2022/07/01 04:11:26;;;;;;;;;;;;;;;;;;5014156;28;19926;-64
2022/07/01 04:13:54;;;;;;;;;;;;;;;;;;5013975;28;19984;-62
2022/07/01 04:16:21;;;;;;;;;;;;;;;;;;5014616;28;20462;-62
2022/07/01 04:18:47;;;;;;;;;;;;;;;;;;5014203;28;19926;-62
2022/07/01 04:23:58;;;;;;;;;;;;;;;;;;5014094;28;19972;-62
2022/07/01 04:26:24;;;;;;;;;;;;;;;;;;5014319;28;20387;-62
2022/07/01 04:28:51;;;;;;;;;;;;;;;;;;5013938;28;19925;-62
2022/07/01 04:31:19;;;;;;;;;;;;;;;;;;5013592;28;19968;-62
2022/07/01 04:33:46;;;;;;;;;;;;;;;;;;5013980;28;19925;-63
2022/07/01 04:36:13;;;;;;;;;;;;;;;;;;5013716;28;19926;-63
2022/07/01 04:38:39;;;;;;;;;;;;;;;;;;5013768;28;19980;-63
2022/07/01 04:43:49;;;;;;;;;;;;;;;;;;5013743;28;20408;-62
2022/07/01 04:46:16;;;;;;;;;;;;;;;;;;5013760;28;19980;-62
2022/07/01 04:48:44;;;;;;;;;;;;;;;;;;5013638;28;19925;-62
2022/07/01 04:51:10;;;;;;;;;;;;;;;;;;5012871;28;20391;-62
2022/07/01 04:53:37;;;;;;;;;;;;;;;;;;5013454;28;19972;-62
2022/07/01 04:56:03;;;;;;;;;;;;;;;;;;5013253;28;20379;-62
2022/07/01 04:58:30;;;;;;;;;;;;;;;;;;5013459;28;20068;-62
2022/07/01 05:00:56;;;;;;;;;;;;;;;;;;5013220;28;19972;-62
2022/07/01 05:03:23;;;;;;;;;;;;;;;;;;5013494;28;20399;-62
2022/07/01 05:05:51;;;;;;;;;;;;;;;;;;5013037;28;19926;-62
2022/07/01 05:08:17;;;;;;;;;;;;;;;;;;5012616;28;19980;-62
2022/07/01 05:10:44;;;;;;;;;;;;;;;;;;5012972;28;19925;-62
2022/07/01 05:13:10;;;;;;;;;;;;;;;;;;5012422;28;19926;-62
2022/07/01 05:15:37;;;;;;;;;;;;;;;;;;5012725;28;19980;-62
2022/07/01 05:23:33;;;;;;;;;;;;;;;;;;5012972;28;19933;-64
2022/07/01 05:25:59;;;;;;;;;;;;;;;;;;5012974;28;19972;-62
2022/07/01 05:28:26;;;;;;;;;;;;;;;;;;5012951;28;19979;-62
2022/07/01 05:30:52;;;;;;;;;;;;;;;;;;5012478;28;20004;-62
2022/07/01 05:33:21;;;;;;;;;;;;;;;;;;5013118;28;19925;-62
2022/07/01 05:35:47;;;;;;;;;;;;;;;;;;5012957;28;19980;-62
2022/07/01 05:38:14;;;;;;;;;;;;;;;;;;5013001;28;19925;-63
2022/07/01 05:40:42;;;;;;;;;;;;;;;;;;5012427;28;19929;-62
2022/07/01 05:43:08;;;;;;;;;;;;;;;;;;5012709;28;19980;-62
2022/07/01 05:45:35;;;;;;;;;;;;;;;;;;5012723;28;19925;-62
2022/07/01 05:48:01;;;;;;;;;;;;;;;;;;5012914;28;19925;-63
2022/07/01 05:50:28;;;;;;;;;;;;;;;;;;5012281;28;19932;-62
2022/07/01 05:52:54;;;;;;;;;;;;;;;;;;5012714;28;20337;-62
2022/07/01 05:55:21;;;;;;;;;;;;;;;;;;5012548;28;20027;-62
2022/07/01 05:57:49;;;;;;;;;;;;;;;;;;5012484;28;19925;-62
2022/07/01 06:00:16;;;;;;;;;;;;;;;;;;5012272;28;19973;-62
2022/07/01 06:02:42;;;;;;;;;;;;;;;;;;5012550;28;19925;-62
2022/07/01 06:05:09;;;;;;;;;;;;;;;;;;5012511;28;20394;-62
2022/07/01 06:07:35;;;;;;;;;;;;;;;;;;5012556;28;19929;-62
2022/07/01 06:10:02;;;;;;;;;;;;;;;;;;5012283;28;19926;-62
2022/07/01 06:12:28;;;;;;;;;;;;;;;;;;5012391;28;19971;-62
2022/07/01 06:14:56;;;;;;;;;;;;;;;;;;5012542;28;20533;-62
2022/07/01 06:17:23;;;;;;;;;;;;;;;;;;5012808;28;19925;-62
2022/07/01 06:19:49;;;;;;;;;;;;;;;;;;5014092;28;19925;-62
2022/07/01 06:22:18;;;;;;;;;;;;;;;;;;5016412;28;19936;-62
2022/07/01 06:24:44;;;;;;;;;;;;;;;;;;5016691;28;19999;-61
2022/07/01 06:27:11;;;;;;;;;;;;;;;;;;5016343;28;19939;-62
2022/07/01 06:29:37;;;;;;;;;;;;;;;;;;5015859;28;19925;-62
2022/07/01 06:32:06;;;;;;;;;;;;;;;;;;5015944;28;19925;-62
2022/07/01 06:34:32;;;;;;;;;;;;;;;;;;5016039;28;19929;-62
2022/07/01 06:37:00;;;;;;;;;;;;;;;;;;5016098;28;19925;-62
2022/07/01 06:39:26;;;;;;;;;;;;;;;;;;5015530;28;19936;-62
2022/07/01 06:41:53;;;;;;;;;;;;;;;;;;5015908;28;20354;-63
2022/07/01 06:44:19;;;;;;;;;;;;;;;;;;5016058;28;19972;-62
2022/07/01 06:46:46;;;;;;;;;;;;;;;;;;5016216;28;19969;-62
2022/07/01 06:49:14;;;;;;;;;;;;;;;;;;5015994;28;20009;-62
2022/07/01 06:51:40;;;;;;;;;;;;;;;;;;5015823;28;19926;-62
2022/07/01 06:54:07;;;;;;;;;;;;;;;;;;5015881;28;19930;-62
2022/07/01 06:56:33;;;;;;;;;;;;;;;;;;5015626;28;19925;-62
2022/07/01 06:59:01;;;;;;;;;;;;;;;;;;5015522;28;19925;-62
2022/07/01 07:01:27;;;;;;;;;;;;;;;;;;5015309;28;19929;-62
2022/07/01 07:03:54;;;;;;;;;;;;;;;;;;5015773;28;19930;-62
2022/07/01 07:06:22;;;;;;;;;;;;;;;;;;5015513;28;19979;-63
2022/07/01 07:08:49;;;;;;;;;;;;;;;;;;5015512;28;20012;-62
2022/07/01 07:11:15;;;;;;;;;;;;;;;;;;5015145;28;19976;-63
2022/07/01 07:13:42;;;;;;;;;;;;;;;;;;5015389;28;19926;-62
2022/07/01 07:16:09;;;;;;;;;;;;;;;;;;5008067;28;19925;-62
2022/07/01 07:18:35;;;;;;;;;;;;;;;;;;5013360;28;19973;-62
2022/07/01 07:21:03;;;;;;;;;;;;;;;;;;5013299;28;20038;-62
2022/07/01 07:23:30;;;;;;;;;;;;;;;;;;5014253;28;20558;-62
2022/07/01 07:25:57;;;;;;;;;;;;;;;;;;5013933;28;20052;-62
2022/07/01 07:28:23;;;;;;;;;;;;;;;;;;5012499;28;20347;-63
2022/07/01 07:30:50;;;;;;;;;;;;;;;;;;5012370;28;19925;-62
2022/07/01 07:33:16;;;;;;;;;;;;;;;;;;5013226;28;19984;-62
2022/07/01 07:35:43;;;;;;;;;;;;;;;;;;5013051;28;20367;-62
2022/07/01 07:38:10;;;;;;;;;;;;;;;;;;5012990;28;19929;-62
2022/07/01 07:40:38;;;;;;;;;;;;;;;;;;5012494;28;19929;-62
2022/07/01 07:43:07;;;;;;;;;;;;;;;;;;5013993;28;20270;-61
2022/07/01 07:45:33;;;;;;;;;;;;;;;;;;5013850;28;19953;-61
2022/07/01 07:48:00;;;;;;;;;;;;;;;;;;5013609;28;20363;-61
2022/07/01 07:50:27;;;;;;;;;;;;;;;;;;5013292;28;19929;-61
2022/07/01 07:52:53;;;;;;;;;;;;;;;;;;5014001;28;19932;-64
2022/07/01 07:55:20;;;;;;;;;;;;;;;;;;5014580;28;19979;-59
2022/07/01 07:57:48;;;;;;;;;;;;;;;;;;5017114;28;19987;-59
2022/07/01 08:00:14;;;;;;;;;;;;;;;;;;5016857;28;19976;-59
2022/07/01 08:02:41;;;;;;;;;;;;;;;;;;5016392;28;19926;-60
2022/07/01 08:05:08;;;;;;;;;;;;;;;;;;5016456;28;19979;-60
2022/07/01 08:07:35;;;;;;;;;;;;;;;;;;5015857;28;20345;-60
2022/07/01 08:10:02;;;;;;;;;;;;;;;;;;5015788;28;19972;-60
2022/07/01 08:12:28;;;;;;;;;;;;;;;;;;5015995;28;19925;-59
2022/07/01 08:14:56;;;;;;;;;;;;;;;;;;5016284;28;19925;-60
2022/07/01 08:17:23;;;;;;;;;;;;;;;;;;5016138;28;20063;-62
2022/07/01 08:19:50;;;;;;;;;;;;;;;;;;5016068;28;20417;-57
2022/07/01 08:22:16;;;;;;;;;;;;;;;;;;5016798;28;19926;-59
2022/07/01 08:24:43;;;;;;;;;;;;;;;;;;5016867;28;19980;-59
2022/07/01 08:27:09;;;;;;;;;;;;;;;;;;5016567;28;19925;-59
2022/07/01 08:29:36;;;;;;;;;;;;;;;;;;5017021;28;20299;-59
2022/07/01 08:32:04;;;;;;;;;;;;;;;;;;5015606;28;20013;-60
2022/07/01 08:34:31;;;;;;;;;;;;;;;;;;5017195;28;20449;-60
2022/07/01 08:36:57;;;;;;;;;;;;;;;;;;5016781;28;19925;-58
2022/07/01 08:39:23;;;;;;;;;;;;;;;;;;5015633;28;19925;-62
2022/07/01 08:41:50;;;;;;;;;;;;;;;;;;5015048;28;20007;-66
2022/07/01 08:44:17;;;;;;;;;;;;;;;;;;5015649;28;19926;-60
2022/07/01 08:46:43;;;;;;;;;;;;;;;;;;5016153;28;19988;-60
2022/07/01 08:49:12;;;;;;;;;;;;;;;;;;5015569;28;19925;-60
2022/07/01 08:51:39;;;;;;;;;;;;;;;;;;5016230;28;19925;-60
2022/07/01 08:54:06;;;;;;;;;;;;;;;;;;5016141;28;19930;-59
2022/07/01 08:56:45;;;;;;;;;;;;;;;;;;5015563;28;19926;-60
2022/07/01 08:59:12;;;;;;;;;;;;;;;;;;5015171;28;19925;-60
2022/07/01 09:01:39;;;;;;;;;;;;;;;;;;5015189;28;19933;-60
2022/07/01 09:04:17;;;;;;;;;;;;;;;;;;5015964;28;19926;-61
2022/07/01 09:06:44;;;;;;;;;;;;;;;;;;5015578;28;19925;-60
2022/07/01 09:09:12;;;;;;;;;;;;;;;;;;5015489;28;20040;-59
2022/07/01 09:11:44;;;;;;;;;;;;;;;;;;5015309;28;19931;-61
2022/07/01 09:14:11;;;;;;;;;;;;;;;;;;5015528;28;19972;-61
2022/07/01 09:16:41;;;;;;;;;;;;;;;;;;5015490;28;19956;-60
2022/07/01 09:19:07;;;;;;;;;;;;;;;;;;5015704;28;19993;-60
2022/07/01 09:21:35;;;;;;;;;;;;;;;;;;5015421;28;20353;-60
2022/07/01 09:24:03;;;;;;;;;;;;;;;;;;5014590;28;19925;-60
2022/07/01 09:26:30;;;;;;;;;;;;;;;;;;5015264;28;20374;-60
2022/07/01 09:28:57;;;;;;;;;;;;;;;;;;5014928;28;19925;-59
2022/07/01 09:31:30;;;;;;;;;;;;;;;;;;5014708;28;19983;-59
2022/07/01 09:34:04;;;;;;;;;;;;;;;;;;5014705;28;20374;-60
2022/07/01 09:36:30;;;;;;;;;;;;;;;;;;5014626;28;19973;-59
2022/07/01 09:39:02;;;;;;;;;;;;;;;;;;5015041;28;19930;-60
2022/07/01 09:41:35;;;;;;;;;;;;;;;;;;5014593;28;19926;-60
2022/07/01 09:44:04;;;;;;;;;;;;;;;;;;5014402;28;19925;-58
2022/07/01 09:46:31;;;;;;;;;;;;;;;;;;5014314;28;19930;-60
2022/07/01 09:48:57;;;;;;;;;;;;;;;;;;5014480;28;19971;-60
2022/07/01 09:51:24;;;;;;;;;;;;;;;;;;5014703;28;19925;-59
2022/07/01 09:53:50;;;;;;;;;;;;;;;;;;5013947;28;19925;-60
2022/07/01 09:56:19;;;;;;;;;;;;;;;;;;5001660;28;19930;-58
2022/07/01 09:58:46;;;;;;;;;;;;;;;;;;4996059;28;19948;-60
2022/07/01 10:01:14;;;;;;;;;;;;;;;;;;5015292;28;20499;-59
2022/07/01 10:03:42;;;;;;;;;;;;;;;;;;5015003;28;19926;-59
2022/07/01 10:06:23;;;;;;;;;;;;;;;;;;5014398;28;19926;-59
2022/07/01 10:08:55;;;;;;;;;;;;;;;;;;5014227;28;19925;-60
2022/07/01 10:11:40;;;;;;;;;;;;;;;;;;5014405;28;19979;-60
2022/07/01 10:14:09;;;;;;;;;;;;;;;;;;5014609;28;20371;-59
2022/07/01 10:16:36;;;;;;;;;;;;;;;;;;5014505;28;19979;-59
2022/07/01 10:22:20;;;;;;;;;;;;;;;;;;5013452;28;19939;-60
2022/07/01 10:24:47;;;;;;;;;;;;;;;;;;5014336;28;19925;-60
2022/07/01 10:30:14;;;;;;;;;;;;;;;;;;5005091;28;20401;-60
2022/07/01 10:32:47;;;;;;;;;;;;;;;;;;5014284;28;19933;-59
2022/07/01 10:35:14;;;;;;;;;;;;;;;;;;5014370;28;19980;-59
2022/07/01 10:37:57;;;;;;;;;;;;;;;;;;5014025;28;19926;-60
2022/07/01 10:40:40;;;;;;;;;;;;;;;;;;5013346;28;19984;-63
2022/07/01 10:43:06;;;;;;;;;;;;;;;;;;5011293;28;19925;-68
2022/07/01 10:54:45;;;;;;;;;;;;;;;;;;4952558;29;19985;-59
2022/07/01 10:57:23;;;;;;;;;;;;;;;;;;4967568;28;19976;-62
2022/07/01 10:59:50;;;;;;;;;;;;;;;;;;5011690;28;20421;-62
2022/07/01 11:02:19;;;;;;;;;;;;;;;;;;5011906;28;19932;-58
2022/07/01 11:04:46;;;;;;;;;;;;;;;;;;5011823;28;19933;-66
2022/07/01 11:07:12;;;;;;;;;;;;;;;;;;5015018;28;20358;-60
2022/07/01 11:09:39;;;;;;;;;;;;;;;;;;5018038;28;20452;-65
2022/07/01 11:12:07;;;;;;;;;;;;;;;;;;5017629;28;19964;-60
2022/07/01 11:14:34;;;;;;;;;;;;;;;;;;5017335;28;20428;-59
2022/07/01 11:17:01;;;;;;;;;;;;;;;;;;5017091;28;19925;-60
2022/07/01 11:19:29;;;;;;;;;;;;;;;;;;5017228;28;19925;-60
2022/07/01 11:21:56;;;;;;;;;;;;;;;;;;5016826;28;19952;-60
2022/07/01 11:24:23;;;;;;;;;;;;;;;;;;5017334;28;19972;-59
2022/07/01 11:26:50;;;;;;;;;;;;;;;;;;5016517;28;20288;-63
2022/07/01 11:29:24;;;;;;;;;;;;;;;;;;5015798;28;19926;-59
2022/07/01 11:31:51;;;;;;;;;;;;;;;;;;5016042;28;19956;-59
2022/07/01 11:34:17;;;;;;;;;;;;;;;;;;5015569;28;20016;-61
2022/07/01 11:39:33;;;;;;;;;;;;;;;;;;5015994;28;19952;-59
2022/07/01 11:42:00;;;;;;;;;;;;;;;;;;5016101;28;19936;-61
2022/07/01 11:44:31;;;;;;;;;;;;;;;;;;5015894;28;19925;-59
2022/07/01 11:46:57;;;;;;;;;;;;;;;;;;5016057;28;20267;-61
2022/07/01 11:49:24;;;;;;;;;;;;;;;;;;5015642;28;19932;-61
2022/07/01 11:51:56;;;;;;;;;;;;;;;;;;5015177;28;20020;-61
2022/07/01 11:54:23;;;;;;;;;;;;;;;;;;5015581;28;19960;-60
2022/07/01 11:56:49;;;;;;;;;;;;;;;;;;5015580;28;20346;-61
2022/07/01 11:59:17;;;;;;;;;;;;;;;;;;5015463;28;19983;-59
2022/07/01 12:01:51;;;;;;;;;;;;;;;;;;5015677;28;20391;-59
2022/07/01 12:04:17;;;;;;;;;;;;;;;;;;5015687;28;20291;-60
2022/07/01 12:06:44;;;;;;;;;;;;;;;;;;5014655;28;19979;-59
2022/07/01 12:09:14;;;;;;;;;;;;;;;;;;5015496;28;20465;-60
2022/07/01 12:11:44;;;;;;;;;;;;;;;;;;5015963;28;20024;-60
2022/07/01 12:14:10;;;;;;;;;;;;;;;;;;5015095;28;19925;-61
2022/07/01 12:16:40;;;;;;;;;;;;;;;;;;5015471;28;19925;-60
2022/07/01 12:19:08;;;;;;;;;;;;;;;;;;5015530;28;19932;-59
2022/07/01 12:21:47;;;;;;;;;;;;;;;;;;5015652;28;20391;-59
2022/07/01 12:24:16;;;;;;;;;;;;;;;;;;5015236;28;19980;-60
2022/07/01 12:26:53;;;;;;;;;;;;;;;;;;5014788;28;19929;-60
2022/07/01 12:29:21;;;;;;;;;;;;;;;;;;5014912;28;19930;-60
2022/07/01 12:31:58;;;;;;;;;;;;;;;;;;5014580;28;19925;-59
2022/07/01 12:34:36;;;;;;;;;;;;;;;;;;5015256;28;19976;-60
2022/07/01 12:37:03;;;;;;;;;;;;;;;;;;5015599;28;19980;-60
2022/07/01 12:39:31;;;;;;;;;;;;;;;;;;5014949;28;20390;-61
2022/07/01 12:41:58;;;;;;;;;;;;;;;;;;5015213;28;19995;-60
2022/07/01 12:44:25;;;;;;;;;;;;;;;;;;5014725;28;20334;-59
2022/07/01 12:46:52;;;;;;;;;;;;;;;;;;5015243;28;19972;-61
2022/07/01 12:49:19;;;;;;;;;;;;;;;;;;5014517;28;19979;-60
2022/07/01 12:51:46;;;;;;;;;;;;;;;;;;5014250;28;19960;-61
2022/07/01 12:54:27;;;;;;;;;;;;;;;;;;5013962;28;19929;-60
2022/07/01 12:56:55;;;;;;;;;;;;;;;;;;5014589;28;19992;-59
2022/07/01 12:59:22;;;;;;;;;;;;;;;;;;5013813;28;19925;-59
2022/07/01 13:01:48;;;;;;;;;;;;;;;;;;5013595;28;19979;-59
2022/07/01 13:04:15;;;;;;;;;;;;;;;;;;5014211;28;19975;-59
2022/07/01 13:06:41;;;;;;;;;;;;;;;;;;5014686;28;19925;-58
2022/07/01 13:09:08;;;;;;;;;;;;;;;;;;5013697;28;20375;-60
2022/07/01 13:11:34;;;;;;;;;;;;;;;;;;5014143;28;19930;-60
2022/07/01 13:14:02;;;;;;;;;;;;;;;;;;5014068;28;20254;-59
2022/07/01 13:16:29;;;;;;;;;;;;;;;;;;5012844;28;19925;-60
2022/07/01 13:18:55;;;;;;;;;;;;;;;;;;5014627;28;19952;-57
2022/07/01 13:21:22;;;;;;;;;;;;;;;;;;5014343;28;19929;-60
2022/07/01 13:23:49;;;;;;;;;;;;;;;;;;5014749;28;19933;-60
2022/07/01 13:26:15;;;;;;;;;;;;;;;;;;5013367;28;19931;-63
2022/07/01 13:28:42;;;;;;;;;;;;;;;;;;5013886;28;19972;-61
2022/07/01 13:31:10;;;;;;;;;;;;;;;;;;5013925;28;20353;-61
2022/07/01 13:33:36;;;;;;;;;;;;;;;;;;5013507;28;19979;-61
2022/07/01 13:36:03;;;;;;;;;;;;;;;;;;5013335;28;19933;-60
2022/07/01 13:38:29;;;;;;;;;;;;;;;;;;5014323;28;20342;-60
2022/07/01 13:40:56;;;;;;;;;;;;;;;;;;5013356;28;19930;-59
2022/07/01 13:43:22;;;;;;;;;;;;;;;;;;5013898;28;20292;-60
2022/07/01 13:45:49;;;;;;;;;;;;;;;;;;5013942;28;19937;-60
2022/07/01 13:48:17;;;;;;;;;;;;;;;;;;5037733;22;19991;-79
2022/07/01 13:50:43;;;;;;;;;;;;;;;;;;5014481;28;20474;-79
2022/07/01 13:53:10;;;;;;;;;;;;;;;;;;5012345;28;19932;-80
2022/07/01 13:55:36;;;;;;;;;;;;;;;;;;5014360;28;19925;-79
2022/07/01 13:58:03;;;;;;;;;;;;;;;;;;5021084;28;20346;-79
2022/07/01 14:00:29;;;;;;;;;;;;;;;;;;5032543;28;19925;-79
2022/07/01 14:02:56;;;;;;;;;;;;;;;;;;5032824;28;20007;-79
2022/07/01 14:05:23;;;;;;;;;;;;;;;;;;5031783;28;19929;-79
2022/07/01 14:07:51;;;;;;;;;;;;;;;;;;5032157;28;20024;-79
2022/07/01 14:10:18;;;;;;;;;;;;;;;;;;5031926;28;19925;-79
2022/07/01 14:12:44;;;;;;;;;;;;;;;;;;5032568;28;20016;-79
2022/07/01 14:15:11;;;;;;;;;;;;;;;;;;5050294;28;20530;-79
2022/07/01 14:17:38;;;;;;;;;;;;;;;;;;5050530;28;19925;-79
2022/07/01 14:20:06;;;;;;;;;;;;;;;;;;5036429;28;19925;-80
2022/07/01 14:22:33;;;;;;;;;;;;;;;;;;5033379;28;19985;-79
2022/07/01 14:25:00;;;;;;;;;;;;;;;;;;5032125;28;20027;-77
2022/07/01 14:27:26;;;;;;;;;;;;;;;;;;5030957;28;20008;-78
2022/07/01 14:29:53;;;;;;;;;;;;;;;;;;5031123;28;19929;-79
2022/07/01 14:32:24;;;;;;;;;;;;;;;;;;5030870;28;19931;-78
2022/07/01 14:34:50;;;;;;;;;;;;;;;;;;5030838;28;19925;-78
2022/07/01 14:37:17;;;;;;;;;;;;;;;;;;5030971;28;19989;-78
2022/07/01 14:39:45;;;;;;;;;;;;;;;;;;5030682;28;19929;-78
2022/07/01 14:42:11;;;;;;;;;;;;;;;;;;5033549;28;20306;-78
2022/07/01 14:44:38;;;;;;;;;;;;;;;;;;5035543;28;19932;-78
2022/07/01 14:47:05;;;;;;;;;;;;;;;;;;5036307;28;20311;-77
2022/07/01 14:49:33;;;;;;;;;;;;;;;;;;5034843;28;20002;-78
2022/07/01 14:51:59;;;;;;;;;;;;;;;;;;5034442;28;19925;-78
2022/07/01 14:54:25;;;;;;;;;;;;;;;;;;5035270;28;19932;-78
2022/07/01 14:56:53;;;;;;;;;;;;;;;;;;5034781;28;20461;-77
2022/07/01 14:59:20;;;;;;;;;;;;;;;;;;5035599;28;19936;-78
2022/07/01 15:01:46;;;;;;;;;;;;;;;;;;5035456;28;20024;-77
2022/07/01 15:04:13;;;;;;;;;;;;;;;;;;5035836;28;19929;-76
2022/07/01 15:06:39;;;;;;;;;;;;;;;;;;5034826;28;19925;-76
2022/07/01 15:09:05;;;;;;;;;;;;;;;;;;5035190;28;19994;-77
2022/07/01 15:11:32;;;;;;;;;;;;;;;;;;5036053;28;20015;-79
2022/07/01 15:14:00;;;;;;;;;;;;;;;;;;5035328;28;20368;-77
2022/07/01 15:16:27;;;;;;;;;;;;;;;;;;5034870;28;19925;-78
2022/07/01 15:18:53;;;;;;;;;;;;;;;;;;5034135;28;20019;-78
2022/07/01 15:21:20;;;;;;;;;;;;;;;;;;5034151;28;20363;-77
2022/07/01 15:23:47;;;;;;;;;;;;;;;;;;5033568;28;19932;-79
2022/07/01 15:26:13;;;;;;;;;;;;;;;;;;5032798;28;20403;-78
2022/07/01 15:28:39;;;;;;;;;;;;;;;;;;5033759;28;19925;-78
2022/07/01 15:31:08;;;;;;;;;;;;;;;;;;5033960;28;19925;-78
2022/07/01 15:33:35;;;;;;;;;;;;;;;;;;5033268;28;19929;-80
2022/07/01 15:36:02;;;;;;;;;;;;;;;;;;5033407;28;19925;-78
2022/07/01 15:38:28;;;;;;;;;;;;;;;;;;5033078;28;19932;-78
2022/07/01 15:40:55;;;;;;;;;;;;;;;;;;5033319;28;19925;-78
2022/07/01 15:43:21;;;;;;;;;;;;;;;;;;5033070;28;20399;-80
2022/07/01 15:45:48;;;;;;;;;;;;;;;;;;5033197;28;19925;-79
2022/07/01 15:48:15;;;;;;;;;;;;;;;;;;5033207;28;19925;-78
2022/07/01 15:50:42;;;;;;;;;;;;;;;;;;5033021;28;19932;-78
2022/07/01 15:53:09;;;;;;;;;;;;;;;;;;5032082;28;19931;-78
2022/07/01 15:55:37;;;;;;;;;;;;;;;;;;5032910;28;20272;-79
2022/07/01 15:58:04;;;;;;;;;;;;;;;;;;5035953;28;19925;-79
2022/07/01 16:00:31;;;;;;;;;;;;;;;;;;5032417;28;20302;-79
2022/07/01 16:02:58;;;;;;;;;;;;;;;;;;5032729;28;19929;-80
2022/07/01 16:05:26;;;;;;;;;;;;;;;;;;5032729;28;20350;-77
2022/07/01 16:07:56;;;;;;;;;;;;;;;;;;5032435;28;19936;-79
2022/07/01 16:10:29;;;;;;;;;;;;;;;;;;5032620;28;19925;-79
2022/07/01 16:12:56;;;;;;;;;;;;;;;;;;5032245;28;19936;-79
2022/07/01 16:15:22;;;;;;;;;;;;;;;;;;5032254;28;19925;-78
2022/07/01 16:17:49;;;;;;;;;;;;;;;;;;5032388;28;19948;-78
2022/07/01 16:20:18;;;;;;;;;;;;;;;;;;5032427;28;19925;-79
2022/07/01 16:22:47;;;;;;;;;;;;;;;;;;5032247;28;19932;-80
2022/07/01 16:25:15;;;;;;;;;;;;;;;;;;5031999;28;20388;-78
2022/07/01 16:27:42;;;;;;;;;;;;;;;;;;5032331;28;19925;-79
2022/07/01 16:30:08;;;;;;;;;;;;;;;;;;5031862;28;20289;-78
2022/07/01 16:32:35;;;;;;;;;;;;;;;;;;5032223;28;19926;-79
2022/07/01 16:35:01;;;;;;;;;;;;;;;;;;5032211;28;19932;-77
2022/07/01 16:37:31;;;;;;;;;;;;;;;;;;5032017;28;19925;-79
2022/07/01 16:40:00;;;;;;;;;;;;;;;;;;5032075;28;19976;-78
2022/07/01 16:42:27;;;;;;;;;;;;;;;;;;5032364;28;19931;-78
2022/07/01 16:44:57;;;;;;;;;;;;;;;;;;5032567;28;19929;-79
2022/07/01 16:47:26;;;;;;;;;;;;;;;;;;5035798;28;20032;-79
2022/07/01 16:49:53;;;;;;;;;;;;;;;;;;5035467;28;19925;-79
2022/07/01 16:52:20;;;;;;;;;;;;;;;;;;5036808;28;19931;-78
2022/07/01 16:54:51;;;;;;;;;;;;;;;;;;5035467;28;20372;-78
2022/07/01 16:57:19;;;;;;;;;;;;;;;;;;5032991;28;19925;-78
2022/07/01 16:59:46;;;;;;;;;;;;;;;;;;5033258;28;20371;-79
2022/07/01 17:02:13;;;;;;;;;;;;;;;;;;5032960;28;20015;-78
2022/07/01 17:04:41;;;;;;;;;;;;;;;;;;5032340;28;19931;-79
2022/07/01 17:07:08;;;;;;;;;;;;;;;;;;5032475;28;19925;-78
2022/07/01 17:09:35;;;;;;;;;;;;;;;;;;5033765;28;19925;-79
2022/07/01 17:12:02;;;;;;;;;;;;;;;;;;5033636;28;19929;-79
2022/07/01 17:14:30;;;;;;;;;;;;;;;;;;5034070;28;19925;-78
2022/07/01 17:16:56;;;;;;;;;;;;;;;;;;5034393;28;19929;-78
2022/07/01 17:19:23;;;;;;;;;;;;;;;;;;5034579;28;19971;-78
2022/07/01 17:21:51;;;;;;;;;;;;;;;;;;5035891;28;19967;-79